Nashville — WDB9884 — position and weather

sailwx.info

Track history (hours):
 
Tides and Currents Weather Stations Pressure Air Temp Water Temp Dewpoint Dewpoint Depression Visibility Wind Speed Wind Dir Waves Ship Positions

Nashville

Owner: Marathon Petroleum Company LP, Findlay, OH. More information available from US FCC via Universal Licensing System and Coast Guard Vessel Documentation Center.

Last reported at 2017-Nov-18 20:25 UTC. Time now 2017-Nov-24 05:49 UTC.
Position N 32°40' W 091°07'.

Length 46 m; draft 2.7 m.

Type: . MMSI: 366984440.

Date/timePositionNaut miles runAvg speedWind from/ knotsBaromVisibWave heightAir tempDewpointWater temp
2017-Nov-18 20:25N 32°40' W 091°07'2 4.5
2017-Nov-18 19:52N 32°38' W 091°09'2 4.2
2017-Nov-18 19:20N 32°36' W 091°09'2 4.6
2017-Nov-18 18:59N 32°35' W 091°07'2 4.8
2017-Nov-18 18:30N 32°33' W 091°06'3 4.8
2017-Nov-18 17:50N 32°30' W 091°07'2 4.9
2017-Nov-18 17:30N 32°29' W 091°07'3 5.1
2017-Nov-18 17:00N 32°27' W 091°05'2 4.9
2017-Nov-18 16:30N 32°26' W 091°02'2 4.6
2017-Nov-18 16:00N 32°25' W 090°60'2 4.3
2017-Nov-18 15:30N 32°23' W 091°00'2 4.2
2017-Nov-18 15:00N 32°21' W 090°59'1 2.9
2017-Nov-18 14:30N 32°21' W 090°57'2 5.0
2017-Nov-18 14:00N 32°20' W 090°54'2 4.5
2017-Nov-18 13:30N 32°18' W 090°55'0 0.3
2017-Nov-18 13:00N 32°18' W 090°55'2 3.0
2017-Nov-18 12:30N 32°17' W 090°57'3 5.3
2017-Nov-18 12:00N 32°15' W 090°59'3 5.4
2017-Nov-18 11:30N 32°12' W 090°59'3 5.4
2017-Nov-18 11:00N 32°10' W 091°00'3 5.1
2017-Nov-18 10:30N 32°07' W 091°01'2 4.3
2017-Nov-18 10:00N 32°08' W 091°04'2 4.6
2017-Nov-18 09:30N 32°08' W 091°06'2 4.6
2017-Nov-18 09:00N 32°06' W 091°05'0 0.6
2017-Nov-18 08:26N 32°05' W 091°05'1 0.5
2017-Nov-18 07:22N 32°05' W 091°04'2 4.2
2017-Nov-18 06:57N 32°04' W 091°03'2 5.5
2017-Nov-18 06:30N 32°01' W 091°04'1 0.9
2017-Nov-18 05:50N 32°01' W 091°05'0 0.1
2017-Nov-18 05:23N 32°01' W 091°05'1 2.0
2017-Nov-18 05:00N 32°00' W 091°05'  
2017-Nov-11 05:02N 31°59' W 091°08'1 8.0
2017-Nov-11 04:58N 31°59' W 091°07'4 7.8
2017-Nov-11 04:31N 32°02' W 091°04'4 7.0
2017-Nov-11 03:59N 32°05' W 091°05'3 5.5
2017-Nov-11 03:29N 32°08' W 091°06'4 7.9
2017-Nov-11 03:01N 32°07' W 091°01'4 8.2
2017-Nov-11 02:30N 32°11' W 090°60'4 8.5
2017-Nov-11 02:00N 32°15' W 090°59'4 8.1
2017-Nov-11 01:31N 32°18' W 090°55'3 5.3
2017-Nov-11 01:00N 32°21' W 090°55'4 7.7
2017-Nov-11 00:30N 32°21' W 090°60'4 7.4
2017-Nov-11 00:00N 32°25' W 090°60'4 8.3
2017-Nov-10 23:31N 32°27' W 091°04'4 7.6
2017-Nov-10 23:00N 32°30' W 091°07'4 8.3
2017-Nov-10 22:30N 32°34' W 091°06'4 8.3
2017-Nov-10 22:01N 32°37' W 091°09'  
Track history (hours):
 
Tides and Currents Weather Stations Pressure Air Temp Water Temp Dewpoint Dewpoint Depression Visibility Wind Speed Wind Dir Waves Ship Positions

Nashville

Owner: Marathon Petroleum Company LP, Findlay, OH. More information available from US FCC via Universal Licensing System and Coast Guard Vessel Documentation Center.

Last reported at 2017-Nov-18 20:25 UTC. Time now 2017-Nov-24 05:49 UTC.
Position N 32°40' W 091°07'.

Length 46 m; draft 2.7 m.

Type: . MMSI: 366984440.

Date/timePositionNaut miles runAvg speedWind from/ knotsBaromVisibWave heightAir tempDewpointWater temp
2017-Nov-18 20:25N 32°40' W 091°07'2 4.5
2017-Nov-18 19:52N 32°38' W 091°09'2 4.2
2017-Nov-18 19:20N 32°36' W 091°09'2 4.6
2017-Nov-18 18:59N 32°35' W 091°07'2 4.8
2017-Nov-18 18:30N 32°33' W 091°06'3 4.8
2017-Nov-18 17:50N 32°30' W 091°07'2 4.9
2017-Nov-18 17:30N 32°29' W 091°07'3 5.1
2017-Nov-18 17:00N 32°27' W 091°05'2 4.9
2017-Nov-18 16:30N 32°26' W 091°02'2 4.6
2017-Nov-18 16:00N 32°25' W 090°60'2 4.3
2017-Nov-18 15:30N 32°23' W 091°00'2 4.2
2017-Nov-18 15:00N 32°21' W 090°59'1 2.9
2017-Nov-18 14:30N 32°21' W 090°57'2 5.0
2017-Nov-18 14:00N 32°20' W 090°54'2 4.5
2017-Nov-18 13:30N 32°18' W 090°55'0 0.3
2017-Nov-18 13:00N 32°18' W 090°55'2 3.0
2017-Nov-18 12:30N 32°17' W 090°57'3 5.3
2017-Nov-18 12:00N 32°15' W 090°59'3 5.4
2017-Nov-18 11:30N 32°12' W 090°59'3 5.4
2017-Nov-18 11:00N 32°10' W 091°00'3 5.1
2017-Nov-18 10:30N 32°07' W 091°01'2 4.3
2017-Nov-18 10:00N 32°08' W 091°04'2 4.6
2017-Nov-18 09:30N 32°08' W 091°06'2 4.6
2017-Nov-18 09:00N 32°06' W 091°05'0 0.6
2017-Nov-18 08:26N 32°05' W 091°05'1 0.5
2017-Nov-18 07:22N 32°05' W 091°04'2 4.2
2017-Nov-18 06:57N 32°04' W 091°03'2 5.5
2017-Nov-18 06:30N 32°01' W 091°04'1 0.9
2017-Nov-18 05:50N 32°01' W 091°05'0 0.1
2017-Nov-18 05:23N 32°01' W 091°05'1 2.0
2017-Nov-18 05:00N 32°00' W 091°05'  
2017-Nov-11 05:02N 31°59' W 091°08'1 8.0
2017-Nov-11 04:58N 31°59' W 091°07'4 7.8
2017-Nov-11 04:31N 32°02' W 091°04'4 7.0
2017-Nov-11 03:59N 32°05' W 091°05'3 5.5
2017-Nov-11 03:29N 32°08' W 091°06'4 7.9
2017-Nov-11 03:01N 32°07' W 091°01'4 8.2
2017-Nov-11 02:30N 32°11' W 090°60'4 8.5
2017-Nov-11 02:00N 32°15' W 090°59'4 8.1
2017-Nov-11 01:31N 32°18' W 090°55'3 5.3
2017-Nov-11 01:00N 32°21' W 090°55'4 7.7
2017-Nov-11 00:30N 32°21' W 090°60'4 7.4
2017-Nov-11 00:00N 32°25' W 090°60'4 8.3
2017-Nov-10 23:31N 32°27' W 091°04'4 7.6
2017-Nov-10 23:00N 32°30' W 091°07'4 8.3
2017-Nov-10 22:30N 32°34' W 091°06'4 8.3
2017-Nov-10 22:01N 32°37' W 091°09'  

Dump ship's entire track history